sensor_id;sensor_type;location;lat;lon;timestamp;P1;durP1;ratioP1;P2;durP2;ratioP2
14903;SDS011;7543;53.148;8.234;2023-06-10T00:00:04;3.60;;;2.27;;
14903;SDS011;7543;53.148;8.234;2023-06-10T00:02:39;4.77;;;2.40;;
14903;SDS011;7543;53.148;8.234;2023-06-10T00:05:07;5.33;;;2.23;;
14903;SDS011;7543;53.148;8.234;2023-06-10T00:07:37;5.40;;;2.37;;
14903;SDS011;7543;53.148;8.234;2023-06-10T00:10:07;4.73;;;2.33;;
14903;SDS011;7543;53.148;8.234;2023-06-10T00:12:37;8.97;;;2.63;;
14903;SDS011;7543;53.148;8.234;2023-06-10T00:15:06;4.87;;;2.30;;
14903;SDS011;7543;53.148;8.234;2023-06-10T00:17:35;4.97;;;2.30;;
14903;SDS011;7543;53.148;8.234;2023-06-10T00:20:06;4.97;;;2.17;;
14903;SDS011;7543;53.148;8.234;2023-06-10T00:22:35;7.90;;;2.37;;
14903;SDS011;7543;53.148;8.234;2023-06-10T00:25:06;4.60;;;2.33;;
14903;SDS011;7543;53.148;8.234;2023-06-10T00:27:35;3.43;;;2.20;;
14903;SDS011;7543;53.148;8.234;2023-06-10T00:30:04;4.30;;;2.27;;
14903;SDS011;7543;53.148;8.234;2023-06-10T00:32:34;3.80;;;2.43;;
14903;SDS011;7543;53.148;8.234;2023-06-10T00:35:03;4.40;;;2.33;;
14903;SDS011;7543;53.148;8.234;2023-06-10T00:37:32;3.63;;;2.27;;
14903;SDS011;7543;53.148;8.234;2023-06-10T00:40:03;3.83;;;2.50;;
14903;SDS011;7543;53.148;8.234;2023-06-10T00:42:32;4.73;;;2.33;;
14903;SDS011;7543;53.148;8.234;2023-06-10T00:45:01;7.30;;;2.73;;
14903;SDS011;7543;53.148;8.234;2023-06-10T00:47:30;4.40;;;2.43;;
14903;SDS011;7543;53.148;8.234;2023-06-10T00:49:59;5.10;;;2.77;;
14903;SDS011;7543;53.148;8.234;2023-06-10T00:52:28;5.77;;;2.60;;
14903;SDS011;7543;53.148;8.234;2023-06-10T00:54:57;5.47;;;2.50;;
14903;SDS011;7543;53.148;8.234;2023-06-10T00:57:27;6.07;;;2.60;;
14903;SDS011;7543;53.148;8.234;2023-06-10T00:59:57;4.27;;;2.53;;
14903;SDS011;7543;53.148;8.234;2023-06-10T01:02:25;6.03;;;2.30;;
14903;SDS011;7543;53.148;8.234;2023-06-10T01:04:55;7.10;;;2.50;;
14903;SDS011;7543;53.148;8.234;2023-06-10T01:07:25;5.80;;;2.60;;
14903;SDS011;7543;53.148;8.234;2023-06-10T01:10:01;7.37;;;2.60;;
14903;SDS011;7543;53.148;8.234;2023-06-10T01:12:33;5.10;;;2.67;;
14903;SDS011;7543;53.148;8.234;2023-06-10T01:15:05;6.77;;;2.77;;
14903;SDS011;7543;53.148;8.234;2023-06-10T01:17:36;5.97;;;2.30;;
14903;SDS011;7543;53.148;8.234;2023-06-10T01:20:05;6.80;;;2.97;;
14903;SDS011;7543;53.148;8.234;2023-06-10T01:22:40;5.57;;;2.60;;
14903;SDS011;7543;53.148;8.234;2023-06-10T01:25:09;8.50;;;2.50;;
14903;SDS011;7543;53.148;8.234;2023-06-10T01:27:38;8.00;;;2.90;;
14903;SDS011;7543;53.148;8.234;2023-06-10T01:30:08;4.63;;;2.63;;
14903;SDS011;7543;53.148;8.234;2023-06-10T01:32:43;6.80;;;2.70;;
14903;SDS011;7543;53.148;8.234;2023-06-10T01:35:15;8.00;;;2.70;;
14903;SDS011;7543;53.148;8.234;2023-06-10T01:37:46;5.27;;;2.83;;
14903;SDS011;7543;53.148;8.234;2023-06-10T01:40:16;5.00;;;2.30;;
14903;SDS011;7543;53.148;8.234;2023-06-10T01:42:44;5.53;;;2.47;;
14903;SDS011;7543;53.148;8.234;2023-06-10T01:45:13;4.70;;;2.53;;
14903;SDS011;7543;53.148;8.234;2023-06-10T01:47:41;7.60;;;2.87;;
14903;SDS011;7543;53.148;8.234;2023-06-10T01:50:10;6.60;;;2.40;;
14903;SDS011;7543;53.148;8.234;2023-06-10T01:52:38;6.90;;;2.90;;
14903;SDS011;7543;53.148;8.234;2023-06-10T01:55:08;6.87;;;2.80;;
14903;SDS011;7543;53.148;8.234;2023-06-10T01:57:36;5.23;;;2.77;;
14903;SDS011;7543;53.148;8.234;2023-06-10T02:00:05;7.73;;;2.67;;
14903;SDS011;7543;53.148;8.234;2023-06-10T02:02:41;6.83;;;3.10;;
14903;SDS011;7543;53.148;8.234;2023-06-10T02:05:10;5.17;;;2.70;;
14903;SDS011;7543;53.148;8.234;2023-06-10T02:07:38;5.60;;;3.10;;
14903;SDS011;7543;53.148;8.234;2023-06-10T02:10:08;9.80;;;2.80;;
14903;SDS011;7543;53.148;8.234;2023-06-10T02:12:37;6.77;;;3.03;;
14903;SDS011;7543;53.148;8.234;2023-06-10T02:15:05;4.40;;;2.80;;
14903;SDS011;7543;53.148;8.234;2023-06-10T02:17:33;6.63;;;2.60;;
14903;SDS011;7543;53.148;8.234;2023-06-10T02:20:02;6.57;;;2.93;;
14903;SDS011;7543;53.148;8.234;2023-06-10T02:22:34;5.80;;;2.90;;
14903;SDS011;7543;53.148;8.234;2023-06-10T02:25:03;7.30;;;3.23;;
14903;SDS011;7543;53.148;8.234;2023-06-10T02:27:33;5.40;;;2.87;;
14903;SDS011;7543;53.148;8.234;2023-06-10T02:30:02;7.70;;;2.53;;
14903;SDS011;7543;53.148;8.234;2023-06-10T02:32:34;5.50;;;2.70;;
14903;SDS011;7543;53.148;8.234;2023-06-10T02:35:03;5.53;;;2.53;;
14903;SDS011;7543;53.148;8.234;2023-06-10T02:37:33;9.23;;;3.03;;
14903;SDS011;7543;53.148;8.234;2023-06-10T02:40:01;5.57;;;3.10;;
14903;SDS011;7543;53.148;8.234;2023-06-10T02:42:30;7.77;;;3.40;;
14903;SDS011;7543;53.148;8.234;2023-06-10T02:45:01;6.73;;;3.20;;
14903;SDS011;7543;53.148;8.234;2023-06-10T02:47:37;8.00;;;2.80;;
14903;SDS011;7543;53.148;8.234;2023-06-10T02:50:06;6.43;;;2.90;;
14903;SDS011;7543;53.148;8.234;2023-06-10T02:52:41;9.17;;;3.20;;
14903;SDS011;7543;53.148;8.234;2023-06-10T02:55:10;8.00;;;3.20;;
14903;SDS011;7543;53.148;8.234;2023-06-10T02:57:41;5.60;;;3.30;;
14903;SDS011;7543;53.148;8.234;2023-06-10T03:00:11;8.20;;;3.10;;
14903;SDS011;7543;53.148;8.234;2023-06-10T03:02:43;7.77;;;3.47;;
14903;SDS011;7543;53.148;8.234;2023-06-10T03:05:13;6.67;;;3.17;;
14903;SDS011;7543;53.148;8.234;2023-06-10T03:07:46;4.23;;;2.70;;
14903;SDS011;7543;53.148;8.234;2023-06-10T03:10:16;6.93;;;3.33;;
14903;SDS011;7543;53.148;8.234;2023-06-10T03:12:44;7.10;;;3.30;;
14903;SDS011;7543;53.148;8.234;2023-06-10T03:15:15;4.57;;;3.10;;
14903;SDS011;7543;53.148;8.234;2023-06-10T03:17:43;7.93;;;3.40;;
14903;SDS011;7543;53.148;8.234;2023-06-10T03:20:12;6.43;;;3.20;;
14903;SDS011;7543;53.148;8.234;2023-06-10T03:22:43;6.40;;;3.13;;
14903;SDS011;7543;53.148;8.234;2023-06-10T03:25:11;7.20;;;3.60;;
14903;SDS011;7543;53.148;8.234;2023-06-10T03:27:43;7.17;;;3.40;;
14903;SDS011;7543;53.148;8.234;2023-06-10T03:30:15;8.67;;;3.50;;
14903;SDS011;7543;53.148;8.234;2023-06-10T03:32:46;7.13;;;3.30;;
14903;SDS011;7543;53.148;8.234;2023-06-10T03:35:18;6.00;;;3.27;;
14903;SDS011;7543;53.148;8.234;2023-06-10T03:37:47;5.93;;;3.40;;
14903;SDS011;7543;53.148;8.234;2023-06-10T03:40:15;6.30;;;3.50;;
14903;SDS011;7543;53.148;8.234;2023-06-10T03:42:46;8.43;;;3.37;;
14903;SDS011;7543;53.148;8.234;2023-06-10T03:45:18;5.53;;;3.10;;
14903;SDS011;7543;53.148;8.234;2023-06-10T03:47:48;5.17;;;3.30;;
14903;SDS011;7543;53.148;8.234;2023-06-10T03:50:18;9.27;;;4.00;;
14903;SDS011;7543;53.148;8.234;2023-06-10T03:52:46;8.17;;;3.73;;
14903;SDS011;7543;53.148;8.234;2023-06-10T03:55:16;8.73;;;3.67;;
14903;SDS011;7543;53.148;8.234;2023-06-10T03:57:46;6.57;;;3.57;;
14903;SDS011;7543;53.148;8.234;2023-06-10T04:00:15;7.57;;;3.70;;
14903;SDS011;7543;53.148;8.234;2023-06-10T04:02:45;5.33;;;3.53;;
14903;SDS011;7543;53.148;8.234;2023-06-10T04:05:36;4.77;;;3.10;;
14903;SDS011;7543;53.148;8.234;2023-06-10T04:08:05;7.93;;;3.80;;
14903;SDS011;7543;53.148;8.234;2023-06-10T04:10:33;10.60;;;3.83;;
14903;SDS011;7543;53.148;8.234;2023-06-10T04:13:02;6.17;;;3.43;;
14903;SDS011;7543;53.148;8.234;2023-06-10T04:15:38;8.20;;;3.63;;
14903;SDS011;7543;53.148;8.234;2023-06-10T04:18:12;4.87;;;3.27;;
14903;SDS011;7543;53.148;8.234;2023-06-10T04:20:42;5.37;;;2.97;;
14903;SDS011;7543;53.148;8.234;2023-06-10T04:23:11;8.13;;;3.83;;
14903;SDS011;7543;53.148;8.234;2023-06-10T04:25:42;6.10;;;3.60;;
14903;SDS011;7543;53.148;8.234;2023-06-10T04:28:11;5.27;;;3.43;;
14903;SDS011;7543;53.148;8.234;2023-06-10T04:30:39;7.63;;;3.93;;
14903;SDS011;7543;53.148;8.234;2023-06-10T04:33:08;6.60;;;3.67;;
14903;SDS011;7543;53.148;8.234;2023-06-10T04:35:39;6.60;;;3.70;;
14903;SDS011;7543;53.148;8.234;2023-06-10T04:38:09;5.90;;;3.17;;
14903;SDS011;7543;53.148;8.234;2023-06-10T04:40:38;7.10;;;3.70;;
14903;SDS011;7543;53.148;8.234;2023-06-10T04:43:07;6.13;;;3.67;;
14903;SDS011;7543;53.148;8.234;2023-06-10T04:45:35;6.83;;;3.87;;
14903;SDS011;7543;53.148;8.234;2023-06-10T04:48:04;6.50;;;3.50;;
14903;SDS011;7543;53.148;8.234;2023-06-10T04:50:33;9.07;;;4.00;;
14903;SDS011;7543;53.148;8.234;2023-06-10T04:53:03;8.57;;;3.37;;
14903;SDS011;7543;53.148;8.234;2023-06-10T04:55:32;5.93;;;3.70;;
14903;SDS011;7543;53.148;8.234;2023-06-10T04:58:01;8.77;;;3.40;;
14903;SDS011;7543;53.148;8.234;2023-06-10T05:00:29;6.70;;;3.73;;
14903;SDS011;7543;53.148;8.234;2023-06-10T05:02:57;7.80;;;3.60;;
14903;SDS011;7543;53.148;8.234;2023-06-10T05:05:25;8.43;;;3.30;;
14903;SDS011;7543;53.148;8.234;2023-06-10T05:07:54;7.40;;;3.07;;
14903;SDS011;7543;53.148;8.234;2023-06-10T05:10:23;10.40;;;3.10;;
14903;SDS011;7543;53.148;8.234;2023-06-10T05:12:52;7.73;;;3.70;;
14903;SDS011;7543;53.148;8.234;2023-06-10T05:15:21;7.07;;;3.40;;
14903;SDS011;7543;53.148;8.234;2023-06-10T05:17:49;5.00;;;3.17;;
14903;SDS011;7543;53.148;8.234;2023-06-10T05:20:18;11.33;;;3.40;;
14903;SDS011;7543;53.148;8.234;2023-06-10T05:22:47;6.63;;;3.13;;
14903;SDS011;7543;53.148;8.234;2023-06-10T05:25:15;12.57;;;3.30;;
14903;SDS011;7543;53.148;8.234;2023-06-10T05:27:45;7.83;;;3.57;;
14903;SDS011;7543;53.148;8.234;2023-06-10T05:30:13;5.73;;;3.17;;
14903;SDS011;7543;53.148;8.234;2023-06-10T05:32:41;6.43;;;3.33;;
14903;SDS011;7543;53.148;8.234;2023-06-10T05:35:10;7.83;;;3.23;;
14903;SDS011;7543;53.148;8.234;2023-06-10T05:37:38;5.67;;;3.07;;
14903;SDS011;7543;53.148;8.234;2023-06-10T05:40:07;4.10;;;2.80;;
14903;SDS011;7543;53.148;8.234;2023-06-10T05:42:36;6.50;;;2.73;;
14903;SDS011;7543;53.148;8.234;2023-06-10T05:45:07;8.70;;;2.70;;
14903;SDS011;7543;53.148;8.234;2023-06-10T05:47:36;3.97;;;2.37;;
14903;SDS011;7543;53.148;8.234;2023-06-10T05:50:04;6.23;;;3.03;;
14903;SDS011;7543;53.148;8.234;2023-06-10T05:52:33;5.57;;;2.60;;
14903;SDS011;7543;53.148;8.234;2023-06-10T05:55:02;5.30;;;2.63;;
14903;SDS011;7543;53.148;8.234;2023-06-10T05:57:30;6.67;;;2.50;;
14903;SDS011;7543;53.148;8.234;2023-06-10T05:59:59;5.87;;;2.80;;
14903;SDS011;7543;53.148;8.234;2023-06-10T06:02:28;5.17;;;2.40;;
14903;SDS011;7543;53.148;8.234;2023-06-10T06:04:56;5.43;;;2.90;;
14903;SDS011;7543;53.148;8.234;2023-06-10T06:07:25;6.10;;;2.87;;
14903;SDS011;7543;53.148;8.234;2023-06-10T06:09:53;7.40;;;3.20;;
14903;SDS011;7543;53.148;8.234;2023-06-10T06:12:22;5.07;;;3.40;;
14903;SDS011;7543;53.148;8.234;2023-06-10T06:14:50;8.00;;;3.70;;
14903;SDS011;7543;53.148;8.234;2023-06-10T06:17:18;5.67;;;3.60;;
14903;SDS011;7543;53.148;8.234;2023-06-10T06:19:48;5.20;;;3.73;;
14903;SDS011;7543;53.148;8.234;2023-06-10T06:22:18;6.93;;;4.13;;
14903;SDS011;7543;53.148;8.234;2023-06-10T06:24:48;5.77;;;4.27;;
14903;SDS011;7543;53.148;8.234;2023-06-10T06:27:16;5.97;;;4.20;;
14903;SDS011;7543;53.148;8.234;2023-06-10T06:29:45;6.30;;;4.10;;
14903;SDS011;7543;53.148;8.234;2023-06-10T06:32:13;8.37;;;4.40;;
14903;SDS011;7543;53.148;8.234;2023-06-10T06:34:42;6.50;;;3.80;;
14903;SDS011;7543;53.148;8.234;2023-06-10T06:37:11;10.03;;;4.20;;
14903;SDS011;7543;53.148;8.234;2023-06-10T06:39:42;7.87;;;4.30;;
14903;SDS011;7543;53.148;8.234;2023-06-10T06:42:11;10.17;;;4.57;;
14903;SDS011;7543;53.148;8.234;2023-06-10T06:44:52;7.37;;;4.07;;
14903;SDS011;7543;53.148;8.234;2023-06-10T06:47:21;6.33;;;4.20;;
14903;SDS011;7543;53.148;8.234;2023-06-10T06:49:50;9.57;;;4.50;;
14903;SDS011;7543;53.148;8.234;2023-06-10T06:52:19;7.93;;;4.93;;
14903;SDS011;7543;53.148;8.234;2023-06-10T06:54:49;5.97;;;4.37;;
14903;SDS011;7543;53.148;8.234;2023-06-10T06:57:17;9.00;;;4.30;;
14903;SDS011;7543;53.148;8.234;2023-06-10T06:59:45;9.57;;;4.90;;
14903;SDS011;7543;53.148;8.234;2023-06-10T07:02:14;7.50;;;4.07;;
14903;SDS011;7543;53.148;8.234;2023-06-10T07:04:42;11.00;;;4.27;;
14903;SDS011;7543;53.148;8.234;2023-06-10T07:07:11;6.53;;;4.40;;
14903;SDS011;7543;53.148;8.234;2023-06-10T07:09:41;6.87;;;4.13;;
14903;SDS011;7543;53.148;8.234;2023-06-10T07:12:12;8.23;;;4.27;;
14903;SDS011;7543;53.148;8.234;2023-06-10T07:14:41;8.97;;;3.97;;
14903;SDS011;7543;53.148;8.234;2023-06-10T07:17:09;7.80;;;3.60;;
14903;SDS011;7543;53.148;8.234;2023-06-10T07:19:38;5.53;;;3.70;;
14903;SDS011;7543;53.148;8.234;2023-06-10T07:22:06;7.47;;;3.93;;
14903;SDS011;7543;53.148;8.234;2023-06-10T07:24:35;6.47;;;3.53;;
14903;SDS011;7543;53.148;8.234;2023-06-10T07:27:05;6.67;;;4.10;;
14903;SDS011;7543;53.148;8.234;2023-06-10T07:29:34;9.37;;;3.90;;
14903;SDS011;7543;53.148;8.234;2023-06-10T07:32:03;8.37;;;3.83;;
14903;SDS011;7543;53.148;8.234;2023-06-10T07:34:31;6.03;;;3.70;;
14903;SDS011;7543;53.148;8.234;2023-06-10T07:37:00;10.10;;;3.97;;
14903;SDS011;7543;53.148;8.234;2023-06-10T07:39:28;6.00;;;3.77;;
14903;SDS011;7543;53.148;8.234;2023-06-10T07:41:56;8.80;;;3.20;;
14903;SDS011;7543;53.148;8.234;2023-06-10T07:44:27;6.40;;;3.70;;
14903;SDS011;7543;53.148;8.234;2023-06-10T07:46:55;6.83;;;3.47;;
14903;SDS011;7543;53.148;8.234;2023-06-10T07:49:24;9.57;;;4.37;;
14903;SDS011;7543;53.148;8.234;2023-06-10T07:51:53;8.90;;;3.77;;
14903;SDS011;7543;53.148;8.234;2023-06-10T07:54:22;4.20;;;2.97;;
14903;SDS011;7543;53.148;8.234;2023-06-10T07:56:51;6.77;;;3.63;;
14903;SDS011;7543;53.148;8.234;2023-06-10T07:59:20;5.87;;;3.50;;
14903;SDS011;7543;53.148;8.234;2023-06-10T08:01:49;5.57;;;3.37;;
14903;SDS011;7543;53.148;8.234;2023-06-10T08:04:18;6.47;;;3.70;;
14903;SDS011;7543;53.148;8.234;2023-06-10T08:06:46;4.27;;;3.10;;
14903;SDS011;7543;53.148;8.234;2023-06-10T08:09:14;9.03;;;3.90;;
14903;SDS011;7543;53.148;8.234;2023-06-10T08:11:43;6.37;;;3.57;;
14903;SDS011;7543;53.148;8.234;2023-06-10T08:14:11;5.10;;;3.50;;
14903;SDS011;7543;53.148;8.234;2023-06-10T08:16:39;6.23;;;3.60;;
14903;SDS011;7543;53.148;8.234;2023-06-10T08:19:09;4.77;;;3.67;;
14903;SDS011;7543;53.148;8.234;2023-06-10T08:21:37;5.77;;;3.40;;
14903;SDS011;7543;53.148;8.234;2023-06-10T08:24:06;5.80;;;3.57;;
14903;SDS011;7543;53.148;8.234;2023-06-10T08:26:35;5.50;;;3.43;;
14903;SDS011;7543;53.148;8.234;2023-06-10T08:29:03;8.03;;;3.63;;
14903;SDS011;7543;53.148;8.234;2023-06-10T08:31:31;6.17;;;3.70;;
14903;SDS011;7543;53.148;8.234;2023-06-10T08:34:00;5.87;;;3.33;;
14903;SDS011;7543;53.148;8.234;2023-06-10T08:36:30;5.37;;;3.37;;
14903;SDS011;7543;53.148;8.234;2023-06-10T08:38:58;11.13;;;3.57;;
14903;SDS011;7543;53.148;8.234;2023-06-10T08:41:27;6.27;;;3.50;;
14903;SDS011;7543;53.148;8.234;2023-06-10T08:43:59;6.53;;;3.43;;
14903;SDS011;7543;53.148;8.234;2023-06-10T08:46:31;8.77;;;4.28;;
14903;SDS011;7543;53.148;8.234;2023-06-10T08:49:00;6.15;;;3.58;;
14903;SDS011;7543;53.148;8.234;2023-06-10T08:51:32;8.90;;;3.90;;
14903;SDS011;7543;53.148;8.234;2023-06-10T08:54:01;6.88;;;3.90;;
14903;SDS011;7543;53.148;8.234;2023-06-10T08:56:30;5.53;;;4.13;;
14903;SDS011;7543;53.148;8.234;2023-06-10T08:58:59;6.05;;;3.75;;
14903;SDS011;7543;53.148;8.234;2023-06-10T09:01:27;8.93;;;4.35;;
14903;SDS011;7543;53.148;8.234;2023-06-10T09:03:56;9.48;;;4.80;;
14903;SDS011;7543;53.148;8.234;2023-06-10T09:06:24;9.75;;;4.50;;
14903;SDS011;7543;53.148;8.234;2023-06-10T09:08:54;6.05;;;4.18;;
14903;SDS011;7543;53.148;8.234;2023-06-10T09:11:23;7.65;;;4.65;;
14903;SDS011;7543;53.148;8.234;2023-06-10T09:13:51;6.30;;;4.20;;
14903;SDS011;7543;53.148;8.234;2023-06-10T09:16:20;7.03;;;4.30;;
14903;SDS011;7543;53.148;8.234;2023-06-10T09:18:48;8.00;;;4.20;;
14903;SDS011;7543;53.148;8.234;2023-06-10T09:21:21;7.00;;;4.38;;
14903;SDS011;7543;53.148;8.234;2023-06-10T09:23:50;9.25;;;4.55;;
14903;SDS011;7543;53.148;8.234;2023-06-10T09:26:20;7.43;;;4.53;;
14903;SDS011;7543;53.148;8.234;2023-06-10T09:28:57;7.18;;;4.32;;
14903;SDS011;7543;53.148;8.234;2023-06-10T09:31:30;8.45;;;4.72;;
14903;SDS011;7543;53.148;8.234;2023-06-10T09:34:06;6.70;;;4.30;;
14903;SDS011;7543;53.148;8.234;2023-06-10T09:36:35;6.57;;;4.60;;
14903;SDS011;7543;53.148;8.234;2023-06-10T09:39:04;5.55;;;4.22;;
14903;SDS011;7543;53.148;8.234;2023-06-10T09:41:39;6.07;;;3.83;;
14903;SDS011;7543;53.148;8.234;2023-06-10T09:44:09;7.38;;;4.20;;
14903;SDS011;7543;53.148;8.234;2023-06-10T09:46:40;6.85;;;4.20;;
14903;SDS011;7543;53.148;8.234;2023-06-10T09:49:09;4.53;;;3.40;;
14903;SDS011;7543;53.148;8.234;2023-06-10T09:51:38;4.93;;;3.40;;
14903;SDS011;7543;53.148;8.234;2023-06-10T09:54:17;5.28;;;2.97;;
14903;SDS011;7543;53.148;8.234;2023-06-10T09:56:48;7.10;;;3.28;;
14903;SDS011;7543;53.148;8.234;2023-06-10T09:59:20;6.40;;;3.22;;
14903;SDS011;7543;53.148;8.234;2023-06-10T10:01:56;5.00;;;3.05;;
14903;SDS011;7543;53.148;8.234;2023-06-10T10:04:24;9.23;;;3.30;;
14903;SDS011;7543;53.148;8.234;2023-06-10T10:06:53;4.78;;;3.00;;
14903;SDS011;7543;53.148;8.234;2023-06-10T10:09:22;6.35;;;2.72;;
14903;SDS011;7543;53.148;8.234;2023-06-10T10:11:51;5.72;;;2.90;;
14903;SDS011;7543;53.148;8.234;2023-06-10T10:14:20;5.40;;;2.95;;
14903;SDS011;7543;53.148;8.234;2023-06-10T10:16:49;6.60;;;2.60;;
14903;SDS011;7543;53.148;8.234;2023-06-10T10:19:19;4.93;;;2.58;;
14903;SDS011;7543;53.148;8.234;2023-06-10T10:21:50;8.48;;;2.85;;
14903;SDS011;7543;53.148;8.234;2023-06-10T10:24:21;5.78;;;2.70;;
14903;SDS011;7543;53.148;8.234;2023-06-10T10:26:53;4.20;;;2.83;;
14903;SDS011;7543;53.148;8.234;2023-06-10T10:29:27;5.72;;;2.50;;
14903;SDS011;7543;53.148;8.234;2023-06-10T10:31:58;8.10;;;2.97;;
14903;SDS011;7543;53.148;8.234;2023-06-10T10:34:29;6.00;;;2.78;;
14903;SDS011;7543;53.148;8.234;2023-06-10T10:37:00;6.53;;;2.83;;
14903;SDS011;7543;53.148;8.234;2023-06-10T10:39:28;5.32;;;2.55;;
14903;SDS011;7543;53.148;8.234;2023-06-10T10:41:59;4.00;;;2.80;;
14903;SDS011;7543;53.148;8.234;2023-06-10T10:44:27;6.13;;;2.70;;
14903;SDS011;7543;53.148;8.234;2023-06-10T10:46:56;4.57;;;2.83;;
14903;SDS011;7543;53.148;8.234;2023-06-10T10:49:24;4.22;;;2.42;;
14903;SDS011;7543;53.148;8.234;2023-06-10T10:51:54;4.18;;;2.35;;
14903;SDS011;7543;53.148;8.234;2023-06-10T10:54:33;4.38;;;2.47;;
14903;SDS011;7543;53.148;8.234;2023-06-10T10:57:12;7.30;;;2.38;;
14903;SDS011;7543;53.148;8.234;2023-06-10T10:59:45;6.18;;;2.38;;
14903;SDS011;7543;53.148;8.234;2023-06-10T11:05:11;5.78;;;2.30;;
14903;SDS011;7543;53.148;8.234;2023-06-10T11:07:51;4.60;;;2.50;;
14903;SDS011;7543;53.148;8.234;2023-06-10T11:10:29;4.03;;;2.30;;
14903;SDS011;7543;53.148;8.234;2023-06-10T11:13:00;12.50;;;2.30;;
14903;SDS011;7543;53.148;8.234;2023-06-10T11:15:30;5.53;;;2.53;;
14903;SDS011;7543;53.148;8.234;2023-06-10T11:20:52;3.70;;;2.15;;
14903;SDS011;7543;53.148;8.234;2023-06-10T11:23:35;4.22;;;2.70;;
14903;SDS011;7543;53.148;8.234;2023-06-10T11:26:13;7.20;;;2.20;;
14903;SDS011;7543;53.148;8.234;2023-06-10T11:29:07;5.28;;;2.47;;
14903;SDS011;7543;53.148;8.234;2023-06-10T11:31:40;5.90;;;2.40;;
14903;SDS011;7543;53.148;8.234;2023-06-10T11:34:10;4.75;;;2.60;;
14903;SDS011;7543;53.148;8.234;2023-06-10T11:36:39;3.20;;;2.15;;
14903;SDS011;7543;53.148;8.234;2023-06-10T11:39:09;3.47;;;2.50;;
14903;SDS011;7543;53.148;8.234;2023-06-10T11:41:38;6.10;;;2.55;;
14903;SDS011;7543;53.148;8.234;2023-06-10T11:44:09;4.30;;;2.40;;
14903;SDS011;7543;53.148;8.234;2023-06-10T11:46:38;6.95;;;2.55;;
14903;SDS011;7543;53.148;8.234;2023-06-10T11:49:06;6.07;;;2.33;;
14903;SDS011;7543;53.148;8.234;2023-06-10T11:51:37;3.58;;;2.45;;
14903;SDS011;7543;53.148;8.234;2023-06-10T11:54:08;2.97;;;1.67;;
14903;SDS011;7543;53.148;8.234;2023-06-10T11:56:36;3.72;;;1.95;;
14903;SDS011;7543;53.148;8.234;2023-06-10T11:59:05;3.40;;;2.20;;
14903;SDS011;7543;53.148;8.234;2023-06-10T12:01:36;3.67;;;1.83;;
14903;SDS011;7543;53.148;8.234;2023-06-10T12:04:07;5.15;;;2.00;;
14903;SDS011;7543;53.148;8.234;2023-06-10T12:06:40;3.95;;;1.85;;
14903;SDS011;7543;53.148;8.234;2023-06-10T12:09:13;4.72;;;1.80;;
14903;SDS011;7543;53.148;8.234;2023-06-10T12:11:43;4.00;;;2.13;;
14903;SDS011;7543;53.148;8.234;2023-06-10T12:14:11;2.22;;;1.70;;
14903;SDS011;7543;53.148;8.234;2023-06-10T12:16:41;4.25;;;1.85;;
14903;SDS011;7543;53.148;8.234;2023-06-10T12:19:16;2.40;;;1.42;;
14903;SDS011;7543;53.148;8.234;2023-06-10T12:21:44;4.25;;;1.60;;
14903;SDS011;7543;53.148;8.234;2023-06-10T12:24:13;4.70;;;1.73;;
14903;SDS011;7543;53.148;8.234;2023-06-10T12:26:42;3.55;;;2.08;;
14903;SDS011;7543;53.148;8.234;2023-06-10T12:29:12;4.30;;;1.83;;
14903;SDS011;7543;53.148;8.234;2023-06-10T12:31:53;2.70;;;1.52;;
14903;SDS011;7543;53.148;8.234;2023-06-10T12:34:27;4.45;;;1.95;;
14903;SDS011;7543;53.148;8.234;2023-06-10T12:36:56;3.25;;;1.80;;
14903;SDS011;7543;53.148;8.234;2023-06-10T12:39:25;3.20;;;1.63;;
14903;SDS011;7543;53.148;8.234;2023-06-10T12:41:54;4.43;;;1.90;;
14903;SDS011;7543;53.148;8.234;2023-06-10T12:44:29;3.53;;;1.55;;
14903;SDS011;7543;53.148;8.234;2023-06-10T12:46:59;2.33;;;1.60;;
14903;SDS011;7543;53.148;8.234;2023-06-10T12:49:28;3.17;;;1.70;;
14903;SDS011;7543;53.148;8.234;2023-06-10T12:51:56;3.45;;;1.70;;
14903;SDS011;7543;53.148;8.234;2023-06-10T12:54:25;4.13;;;1.83;;
14903;SDS011;7543;53.148;8.234;2023-06-10T12:56:53;4.30;;;1.80;;
14903;SDS011;7543;53.148;8.234;2023-06-10T12:59:21;2.85;;;1.33;;
14903;SDS011;7543;53.148;8.234;2023-06-10T13:01:50;2.58;;;1.55;;
14903;SDS011;7543;53.148;8.234;2023-06-10T13:04:21;3.10;;;1.65;;
14903;SDS011;7543;53.148;8.234;2023-06-10T13:06:49;2.97;;;1.48;;
14903;SDS011;7543;53.148;8.234;2023-06-10T13:09:17;2.28;;;1.50;;
14903;SDS011;7543;53.148;8.234;2023-06-10T13:11:46;3.13;;;1.70;;
14903;SDS011;7543;53.148;8.234;2023-06-10T13:14:14;3.45;;;1.35;;
14903;SDS011;7543;53.148;8.234;2023-06-10T13:16:43;2.42;;;1.50;;
14903;SDS011;7543;53.148;8.234;2023-06-10T13:19:14;2.03;;;1.50;;
14903;SDS011;7543;53.148;8.234;2023-06-10T13:21:44;3.63;;;1.60;;
14903;SDS011;7543;53.148;8.234;2023-06-10T13:24:13;4.43;;;1.90;;
14903;SDS011;7543;53.148;8.234;2023-06-10T13:26:41;2.58;;;1.55;;
14903;SDS011;7543;53.148;8.234;2023-06-10T13:29:10;2.60;;;1.42;;
14903;SDS011;7543;53.148;8.234;2023-06-10T13:31:40;3.92;;;1.70;;
14903;SDS011;7543;53.148;8.234;2023-06-10T13:34:09;3.08;;;1.80;;
14903;SDS011;7543;53.148;8.234;2023-06-10T13:36:38;2.25;;;1.30;;
14903;SDS011;7543;53.148;8.234;2023-06-10T13:39:07;3.90;;;1.60;;
14903;SDS011;7543;53.148;8.234;2023-06-10T13:41:35;2.83;;;1.63;;
14903;SDS011;7543;53.148;8.234;2023-06-10T13:44:04;4.43;;;1.58;;
14903;SDS011;7543;53.148;8.234;2023-06-10T13:46:33;4.20;;;1.55;;
14903;SDS011;7543;53.148;8.234;2023-06-10T13:49:01;3.25;;;1.48;;
14903;SDS011;7543;53.148;8.234;2023-06-10T13:51:29;2.33;;;1.48;;
14903;SDS011;7543;53.148;8.234;2023-06-10T13:53:57;2.05;;;1.60;;
14903;SDS011;7543;53.148;8.234;2023-06-10T13:56:27;4.47;;;1.75;;
14903;SDS011;7543;53.148;8.234;2023-06-10T13:58:55;2.97;;;1.63;;
14903;SDS011;7543;53.148;8.234;2023-06-10T14:01:24;3.63;;;1.70;;
14903;SDS011;7543;53.148;8.234;2023-06-10T14:03:52;3.90;;;1.73;;
14903;SDS011;7543;53.148;8.234;2023-06-10T14:06:20;3.63;;;1.80;;
14903;SDS011;7543;53.148;8.234;2023-06-10T14:08:49;2.95;;;1.45;;
14903;SDS011;7543;53.148;8.234;2023-06-10T14:11:17;2.45;;;1.75;;
14903;SDS011;7543;53.148;8.234;2023-06-10T14:13:50;3.42;;;1.80;;
14903;SDS011;7543;53.148;8.234;2023-06-10T14:16:19;2.55;;;1.73;;
14903;SDS011;7543;53.148;8.234;2023-06-10T14:18:48;9.23;;;1.75;;
14903;SDS011;7543;53.148;8.234;2023-06-10T14:21:17;2.85;;;2.00;;
14903;SDS011;7543;53.148;8.234;2023-06-10T14:23:45;2.75;;;1.60;;
14903;SDS011;7543;53.148;8.234;2023-06-10T14:26:15;2.67;;;1.80;;
14903;SDS011;7543;53.148;8.234;2023-06-10T14:28:44;3.58;;;1.65;;
14903;SDS011;7543;53.148;8.234;2023-06-10T14:31:13;3.38;;;1.73;;
14903;SDS011;7543;53.148;8.234;2023-06-10T14:33:42;2.97;;;1.80;;
14903;SDS011;7543;53.148;8.234;2023-06-10T14:36:10;2.40;;;1.60;;
14903;SDS011;7543;53.148;8.234;2023-06-10T14:38:38;2.42;;;1.60;;
14903;SDS011;7543;53.148;8.234;2023-06-10T14:41:07;4.28;;;1.98;;
14903;SDS011;7543;53.148;8.234;2023-06-10T14:43:35;2.85;;;1.80;;
14903;SDS011;7543;53.148;8.234;2023-06-10T14:46:03;2.60;;;1.70;;
14903;SDS011;7543;53.148;8.234;2023-06-10T14:48:33;2.80;;;1.58;;
14903;SDS011;7543;53.148;8.234;2023-06-10T14:51:02;2.83;;;1.67;;
14903;SDS011;7543;53.148;8.234;2023-06-10T14:53:31;3.22;;;2.03;;
14903;SDS011;7543;53.148;8.234;2023-06-10T14:55:59;3.08;;;1.70;;
14903;SDS011;7543;53.148;8.234;2023-06-10T14:58:27;2.35;;;1.88;;
14903;SDS011;7543;53.148;8.234;2023-06-10T15:00:56;4.10;;;1.90;;
14903;SDS011;7543;53.148;8.234;2023-06-10T15:03:24;4.43;;;2.05;;
14903;SDS011;7543;53.148;8.234;2023-06-10T15:05:54;3.20;;;1.80;;
14903;SDS011;7543;53.148;8.234;2023-06-10T15:08:22;3.50;;;2.00;;
14903;SDS011;7543;53.148;8.234;2023-06-10T15:10:50;3.08;;;1.70;;
14903;SDS011;7543;53.148;8.234;2023-06-10T15:13:19;3.53;;;1.85;;
14903;SDS011;7543;53.148;8.234;2023-06-10T15:15:47;5.07;;;1.77;;
14903;SDS011;7543;53.148;8.234;2023-06-10T15:18:15;3.45;;;2.00;;
14903;SDS011;7543;53.148;8.234;2023-06-10T15:20:44;5.60;;;2.25;;